createdAt,value
2024-05-09T00:01:14.863Z,100.00
2024-05-09T00:03:22.522Z,100.00
2024-05-09T00:05:29.949Z,100.00
2024-05-09T00:07:37.297Z,100.00
2024-05-09T00:09:44.554Z,100.00
2024-05-09T00:11:51.994Z,100.00
2024-05-09T00:13:59.394Z,100.00
2024-05-09T00:16:07.426Z,100.00
2024-05-09T00:18:14.883Z,100.00
2024-05-09T00:20:28.386Z,100.00
2024-05-09T00:22:42.711Z,100.00
2024-05-09T00:24:50.022Z,100.00
2024-05-09T00:26:57.414Z,100.00
2024-05-09T00:29:05.046Z,100.00
2024-05-09T00:31:12.344Z,100.00
2024-05-09T00:33:20.085Z,100.00
2024-05-09T00:35:27.774Z,100.00
2024-05-09T00:37:35.175Z,100.00
2024-05-09T00:39:42.450Z,100.00
2024-05-09T00:41:49.745Z,100.00
2024-05-09T00:43:57.074Z,100.00
2024-05-09T00:46:05.441Z,100.00
2024-05-09T00:48:17.785Z,100.00
2024-05-09T00:50:35.468Z,100.00
2024-05-09T00:52:45.927Z,100.00
2024-05-09T00:54:53.188Z,100.00
2024-05-09T00:57:01.218Z,100.00
2024-05-09T00:59:09.249Z,100.00
2024-05-09T01:01:20.593Z,100.00
2024-05-09T01:03:28.307Z,100.00
2024-05-09T01:05:35.882Z,100.00
2024-05-09T01:07:43.588Z,100.00
2024-05-09T01:09:50.908Z,100.00
2024-05-09T01:11:58.235Z,100.00
2024-05-09T01:14:05.731Z,100.00
2024-05-09T01:16:14.158Z,100.00
2024-05-09T01:18:21.625Z,100.00
2024-05-09T01:20:39.187Z,100.00
2024-05-09T01:22:50.057Z,100.00
2024-05-09T01:24:57.508Z,100.00
2024-05-09T01:27:05.013Z,100.00
2024-05-09T01:29:12.355Z,100.00
2024-05-09T01:31:19.740Z,100.00
2024-05-09T01:33:27.268Z,100.00
2024-05-09T01:35:34.879Z,100.00
2024-05-09T01:37:42.428Z,100.00
2024-05-09T01:39:49.759Z,100.00
2024-05-09T01:41:56.936Z,100.00
2024-05-09T01:44:04.732Z,100.00
2024-05-09T01:46:16.027Z,100.00
2024-05-09T01:48:23.463Z,100.00
2024-05-09T01:52:41.119Z,100.00
2024-05-09T01:54:48.321Z,100.00
2024-05-09T01:56:55.923Z,100.00
2024-05-09T01:59:03.297Z,100.00
2024-05-09T02:01:10.638Z,100.00
2024-05-09T02:03:18.540Z,100.00
2024-05-09T02:05:27.397Z,100.00
2024-05-09T02:07:35.856Z,100.00
2024-05-09T02:09:43.102Z,100.00
2024-05-09T02:11:50.772Z,100.00
2024-05-09T02:13:58.107Z,100.00
2024-05-09T02:16:05.898Z,100.00
2024-05-09T02:18:13.724Z,100.00
2024-05-09T02:22:31.705Z,100.00
2024-05-09T02:24:38.943Z,100.00
2024-05-09T02:26:46.217Z,100.00
2024-05-09T02:28:53.457Z,100.00
2024-05-09T02:31:00.674Z,100.00
2024-05-09T02:33:09.192Z,100.00
2024-05-09T02:35:17.744Z,100.00
2024-05-09T02:37:25.106Z,100.00
2024-05-09T02:39:32.339Z,100.00
2024-05-09T02:41:39.750Z,100.00
2024-05-09T02:43:47.074Z,100.00
2024-05-09T02:45:54.332Z,100.00
2024-05-09T02:48:02.239Z,100.00
2024-05-09T02:50:13.347Z,100.00
2024-05-09T02:52:23.444Z,100.00
2024-05-09T02:54:30.897Z,100.00
2024-05-09T02:56:38.169Z,100.00
2024-05-09T02:58:45.784Z,100.00
2024-05-09T03:00:53.062Z,100.00
2024-05-09T03:03:00.600Z,100.00
2024-05-09T03:05:08.606Z,100.00
2024-05-09T03:07:17.271Z,100.00
2024-05-09T03:09:26.427Z,100.00
2024-05-09T03:11:33.754Z,100.00
2024-05-09T03:13:42.442Z,100.00
2024-05-09T03:15:49.729Z,100.00
2024-05-09T03:17:57.129Z,100.00
2024-05-09T03:20:09.141Z,100.00
2024-05-09T03:22:18.994Z,100.00
2024-05-09T03:24:26.375Z,100.00
2024-05-09T03:26:33.740Z,100.00
2024-05-09T03:28:42.209Z,100.00
2024-05-09T03:30:49.722Z,100.00
2024-05-09T03:32:57.197Z,100.00
2024-05-09T03:35:04.804Z,100.00
2024-05-09T03:37:12.151Z,100.00
2024-05-09T03:39:19.464Z,100.00
2024-05-09T03:41:26.750Z,100.00
2024-05-09T03:43:34.021Z,100.00
2024-05-09T03:45:41.331Z,100.00
2024-05-09T03:47:48.897Z,100.00
2024-05-09T03:49:56.444Z,100.00
2024-05-09T03:52:05.160Z,100.00
2024-05-09T03:54:12.541Z,100.00
2024-05-09T03:56:19.848Z,100.00
2024-05-09T03:58:27.102Z,100.00
2024-05-09T04:00:38.224Z,100.00
2024-05-09T04:02:49.066Z,100.00
2024-05-09T04:04:56.632Z,100.00
2024-05-09T04:07:03.867Z,100.00
2024-05-09T04:09:11.154Z,100.00
2024-05-09T04:11:18.705Z,100.00
2024-05-09T04:13:26.440Z,100.00
2024-05-09T04:15:33.724Z,100.00
2024-05-09T04:17:41.177Z,100.00
2024-05-09T04:19:48.546Z,100.00
2024-05-09T04:21:55.802Z,100.00
2024-05-09T04:24:03.028Z,100.00
2024-05-09T04:26:10.432Z,100.00
2024-05-09T04:28:17.738Z,100.00
2024-05-09T04:30:34.484Z,100.00
2024-05-09T04:32:46.282Z,100.00
2024-05-09T04:34:53.663Z,100.00
2024-05-09T04:37:00.927Z,100.00
2024-05-09T04:39:08.222Z,100.00
2024-05-09T04:41:15.504Z,100.00
2024-05-09T04:43:22.887Z,100.00
2024-05-09T04:45:30.450Z,100.00
2024-05-09T04:47:38.017Z,100.00
2024-05-09T04:49:46.433Z,100.00
2024-05-09T04:51:53.731Z,100.00
2024-05-09T04:54:00.934Z,100.00
2024-05-09T04:56:09.314Z,100.00
2024-05-09T04:58:16.650Z,99.24
2024-05-09T05:00:32.468Z,97.33
2024-05-09T05:02:44.002Z,96.03
2024-05-09T05:04:51.656Z,95.68
2024-05-09T05:07:02.081Z,95.57
2024-05-09T05:09:10.069Z,94.45
2024-05-09T05:11:17.488Z,93.91
2024-05-09T05:13:25.589Z,93.74
2024-05-09T05:15:32.800Z,93.30
2024-05-09T05:17:40.302Z,91.36
2024-05-09T05:19:47.988Z,91.43
2024-05-09T05:21:55.276Z,90.67
2024-05-09T05:24:02.592Z,89.53
2024-05-09T05:26:09.925Z,88.62
2024-05-09T05:28:18.427Z,86.36
2024-05-09T05:30:29.311Z,84.39
2024-05-09T05:32:42.222Z,83.27
2024-05-09T05:34:49.667Z,83.33
2024-05-09T05:36:56.989Z,82.60
2024-05-09T05:39:04.307Z,81.24
2024-05-09T05:41:12.153Z,81.24
2024-05-09T05:43:20.355Z,80.10
2024-05-09T05:45:27.632Z,78.22
2024-05-09T05:47:35.235Z,79.06
2024-05-09T05:49:42.618Z,78.32
2024-05-09T05:51:49.868Z,77.75
2024-05-09T05:53:57.064Z,76.43
2024-05-09T05:56:05.367Z,74.85
2024-05-09T05:58:14.433Z,75.15
2024-05-09T06:00:29.463Z,74.38
2024-05-09T06:02:42.724Z,73.27
2024-05-09T06:04:50.220Z,73.78
2024-05-09T06:06:57.623Z,73.49
2024-05-09T06:09:04.932Z,70.88
2024-05-09T06:11:12.268Z,70.07
2024-05-09T06:13:20.449Z,69.60
2024-05-09T06:15:27.733Z,69.01
2024-05-09T06:17:35.100Z,68.80
2024-05-09T06:19:42.583Z,66.90
2024-05-09T06:21:50.026Z,67.19
2024-05-09T06:23:57.271Z,64.79
2024-05-09T06:26:05.392Z,63.95
2024-05-09T06:28:12.712Z,64.03
2024-05-09T06:30:26.290Z,62.98
2024-05-09T06:32:45.105Z,62.37
2024-05-09T06:34:52.548Z,62.69
2024-05-09T06:36:59.785Z,62.09
2024-05-09T06:39:09.931Z,62.17
2024-05-09T06:41:17.340Z,62.40
2024-05-09T06:43:24.691Z,61.11
2024-05-09T06:45:31.963Z,60.98
2024-05-09T06:47:39.390Z,60.40
2024-05-09T06:49:47.087Z,60.24
2024-05-09T06:51:54.399Z,59.89
2024-05-09T06:54:01.714Z,59.73
2024-05-09T06:56:09.920Z,58.88
2024-05-09T06:58:17.252Z,58.43
2024-05-09T07:00:30.879Z,57.66
2024-05-09T07:02:45.661Z,56.70
2024-05-09T07:04:53.319Z,57.40
2024-05-09T07:07:00.802Z,56.38
2024-05-09T07:09:08.076Z,55.49
2024-05-09T07:11:15.694Z,55.96
2024-05-09T07:13:23.015Z,55.14
2024-05-09T07:15:30.218Z,54.95
2024-05-09T07:17:37.702Z,53.56
2024-05-09T07:19:45.192Z,52.95
2024-05-09T07:21:52.500Z,52.21
2024-05-09T07:23:59.785Z,52.23
2024-05-09T07:26:07.262Z,52.51
2024-05-09T07:28:16.814Z,51.31
2024-05-09T07:30:30.843Z,51.24
2024-05-09T07:32:41.637Z,49.05
2024-05-09T07:34:49.044Z,47.70
2024-05-09T07:36:56.304Z,46.67
2024-05-09T07:39:05.349Z,47.11
2024-05-09T07:41:12.595Z,46.56
2024-05-09T07:43:19.906Z,45.93
2024-05-09T07:45:44.925Z,44.23
2024-05-09T07:49:43.982Z,43.59
2024-05-09T07:53:32.729Z,42.74
2024-05-09T07:54:59.079Z,41.29
2024-05-09T07:57:07.070Z,41.46
2024-05-09T07:59:14.470Z,39.62
2024-05-09T08:01:22.356Z,39.78
2024-05-09T08:03:29.958Z,40.16
2024-05-09T08:05:38.064Z,38.49
2024-05-09T08:07:47.008Z,37.83
2024-05-09T08:09:54.448Z,36.73
2024-05-09T08:12:01.753Z,37.06
2024-05-09T08:14:08.998Z,36.97
2024-05-09T08:16:16.805Z,37.15
2024-05-09T08:18:24.215Z,36.30
2024-05-09T08:20:35.163Z,36.21
2024-05-09T08:22:42.957Z,35.60
2024-05-09T08:24:50.332Z,35.87
2024-05-09T08:26:57.575Z,35.41
2024-05-09T08:29:04.834Z,35.54
2024-05-09T08:31:12.137Z,35.14
2024-05-09T08:33:19.775Z,35.73
2024-05-09T08:35:27.061Z,35.82
2024-05-09T08:37:38.714Z,35.78
2024-05-09T08:39:47.760Z,36.29
2024-05-09T08:41:55.002Z,35.17
2024-05-09T08:44:02.306Z,35.40
2024-05-09T08:46:09.557Z,35.82
2024-05-09T08:48:17.042Z,35.56
2024-05-09T08:50:32.307Z,34.62
2024-05-09T08:52:45.864Z,35.11
2024-05-09T08:54:54.631Z,33.85
2024-05-09T08:57:03.376Z,33.42
2024-05-09T08:59:17.711Z,33.87
2024-05-09T09:01:25.947Z,32.20
2024-05-09T09:03:37.524Z,32.26
2024-05-09T09:05:53.879Z,31.71
2024-05-09T09:08:01.151Z,31.45
2024-05-09T09:10:12.918Z,31.74
2024-05-09T09:12:22.548Z,32.19
2024-05-09T09:14:29.758Z,31.65
2024-05-09T09:16:38.036Z,31.25
2024-05-09T09:18:47.327Z,30.84
2024-05-09T09:20:54.820Z,31.68
2024-05-09T09:23:02.376Z,32.43
2024-05-09T09:25:10.014Z,31.45
2024-05-09T09:27:17.474Z,30.03
2024-05-09T09:29:25.142Z,31.01
2024-05-09T09:31:33.376Z,30.73
2024-05-09T09:33:45.472Z,31.69
2024-05-09T09:35:52.841Z,32.75
2024-05-09T09:38:04.329Z,32.77
2024-05-09T09:40:15.631Z,32.97
2024-05-09T09:42:29.951Z,34.06
2024-05-09T09:44:42.118Z,34.46
2024-05-09T09:46:50.891Z,33.81
2024-05-09T09:48:58.343Z,33.30
2024-05-09T09:51:07.227Z,33.53
2024-05-09T09:53:14.871Z,33.36
2024-05-09T09:55:24.680Z,32.97
2024-05-09T09:57:36.325Z,34.46
2024-05-09T09:59:48.865Z,33.63
2024-05-09T10:01:56.451Z,33.49
2024-05-09T10:04:05.545Z,33.70
2024-05-09T10:06:14.634Z,33.35
2024-05-09T10:08:23.965Z,32.20
2024-05-09T10:10:35.186Z,33.22
2024-05-09T10:12:52.515Z,32.88
2024-05-09T10:14:59.858Z,32.65
2024-05-09T10:17:08.075Z,33.13
2024-05-09T10:19:29.152Z,32.89
2024-05-09T10:21:46.846Z,33.11
2024-05-09T10:24:01.467Z,32.65
2024-05-09T10:26:08.815Z,32.23
2024-05-09T10:28:16.391Z,33.20
2024-05-09T10:30:33.807Z,31.99
2024-05-09T10:32:45.654Z,32.24
2024-05-09T10:35:11.575Z,31.11
2024-05-09T10:37:19.692Z,31.29
2024-05-09T10:39:27.376Z,31.28
2024-05-09T10:41:38.527Z,32.27
2024-05-09T10:43:46.173Z,33.12
2024-05-09T10:45:54.068Z,33.88
2024-05-09T10:48:01.891Z,34.42
2024-05-09T10:50:18.355Z,35.03
2024-05-09T10:52:32.665Z,35.63
2024-05-09T10:54:39.989Z,35.57
2024-05-09T10:56:47.230Z,35.65
2024-05-09T10:58:55.560Z,35.15
2024-05-09T11:01:06.418Z,34.91
2024-05-09T11:03:16.313Z,33.55
2024-05-09T11:05:24.753Z,31.90
2024-05-09T11:07:32.459Z,32.97
2024-05-09T11:09:40.972Z,32.51
2024-05-09T11:11:48.783Z,32.52
2024-05-09T11:13:56.104Z,32.24
2024-05-09T11:16:04.722Z,31.13
2024-05-09T11:18:25.429Z,31.61
2024-05-09T11:20:37.589Z,30.72
2024-05-09T11:22:44.986Z,30.56
2024-05-09T11:24:52.383Z,30.42
2024-05-09T11:27:02.565Z,31.37
2024-05-09T11:29:09.861Z,32.01
2024-05-09T11:31:17.443Z,31.40
2024-05-09T11:33:25.058Z,29.80
2024-05-09T11:35:33.085Z,30.34
2024-05-09T11:37:42.609Z,30.06
2024-05-09T11:39:49.893Z,30.22
2024-05-09T11:41:57.254Z,29.40
2024-05-09T11:44:04.588Z,29.59
2024-05-09T11:46:12.133Z,29.60
2024-05-09T11:48:20.002Z,30.21
2024-05-09T11:50:32.816Z,30.23
2024-05-09T11:52:43.006Z,28.87
2024-05-09T11:54:50.239Z,27.99
2024-05-09T11:56:57.569Z,27.95
2024-05-09T11:59:05.176Z,27.69
2024-05-09T12:01:12.536Z,28.37
2024-05-09T12:03:20.581Z,27.87
2024-05-09T12:05:28.381Z,27.69
2024-05-09T12:07:35.977Z,27.53
2024-05-09T12:09:43.279Z,27.77
2024-05-09T12:11:50.585Z,27.57
2024-05-09T12:13:57.895Z,28.89
2024-05-09T12:16:05.531Z,28.28
2024-05-09T12:18:13.179Z,29.26
2024-05-09T12:20:28.738Z,29.24
2024-05-09T12:22:43.017Z,28.37
2024-05-09T12:24:50.336Z,27.78
2024-05-09T12:26:57.766Z,28.23
2024-05-09T12:29:05.081Z,27.54
2024-05-09T12:31:12.493Z,27.06
2024-05-09T12:33:21.614Z,26.49
2024-05-09T12:35:29.354Z,26.67
2024-05-09T12:37:36.708Z,26.88
2024-05-09T12:39:44.009Z,27.63
2024-05-09T12:41:51.300Z,28.44
2024-05-09T12:43:58.547Z,28.87
2024-05-09T12:46:06.186Z,28.24
2024-05-09T12:48:13.702Z,28.66
2024-05-09T12:50:29.183Z,27.96
2024-05-09T12:52:39.488Z,28.25
2024-05-09T12:54:46.783Z,28.05
2024-05-09T12:56:54.176Z,28.39
2024-05-09T12:59:01.468Z,27.66
2024-05-09T13:01:08.816Z,26.96
2024-05-09T13:03:16.438Z,27.06
2024-05-09T13:05:24.387Z,26.78
2024-05-09T13:07:32.095Z,27.49
2024-05-09T13:09:39.417Z,28.28
2024-05-09T13:11:46.877Z,28.30
2024-05-09T13:13:54.171Z,28.30
2024-05-09T13:16:01.763Z,27.51
2024-05-09T13:18:10.227Z,27.23
2024-05-09T13:20:26.103Z,27.19
2024-05-09T13:22:40.397Z,27.88
2024-05-09T13:24:47.709Z,28.04
2024-05-09T13:26:55.394Z,27.57
2024-05-09T13:29:02.719Z,27.32
2024-05-09T13:31:09.996Z,27.75
2024-05-09T13:33:17.433Z,27.24
2024-05-09T13:35:24.816Z,27.17
2024-05-09T13:37:32.864Z,26.17
2024-05-09T13:39:40.461Z,25.93
2024-05-09T13:41:47.764Z,25.26
2024-05-09T13:43:54.965Z,25.30
2024-05-09T13:46:02.315Z,26.02
2024-05-09T13:48:10.821Z,24.37
2024-05-09T13:50:27.954Z,24.68
2024-05-09T13:52:41.033Z,24.55
2024-05-09T13:54:48.349Z,25.28
2024-05-09T13:56:58.779Z,25.62
2024-05-09T13:59:06.203Z,26.05
2024-05-09T14:01:13.665Z,26.03
2024-05-09T14:03:21.481Z,26.96
2024-05-09T14:05:30.120Z,26.87
2024-05-09T14:07:37.574Z,26.66
2024-05-09T14:09:47.011Z,26.69
2024-05-09T14:11:54.308Z,26.36
2024-05-09T14:14:01.568Z,26.53
2024-05-09T14:16:09.944Z,26.96
2024-05-09T14:18:17.451Z,26.97
2024-05-09T14:20:31.031Z,26.60
2024-05-09T14:22:40.814Z,27.17
2024-05-09T14:24:48.219Z,26.92
2024-05-09T14:26:55.754Z,26.92
2024-05-09T14:29:03.085Z,27.14
2024-05-09T14:31:10.396Z,27.58
2024-05-09T14:33:23.389Z,28.38
2024-05-09T14:35:30.899Z,28.54
2024-05-09T14:37:39.792Z,28.54
2024-05-09T14:39:47.266Z,29.11
2024-05-09T14:41:54.695Z,28.75
2024-05-09T14:44:01.937Z,29.23
2024-05-09T14:46:12.215Z,29.36
2024-05-09T14:48:21.044Z,29.74
2024-05-09T14:50:35.406Z,30.02
2024-05-09T14:52:46.686Z,30.51
2024-05-09T14:55:00.214Z,30.09
2024-05-09T14:57:08.635Z,29.99
2024-05-09T14:59:15.883Z,29.85
2024-05-09T15:01:23.944Z,30.13
2024-05-09T15:03:31.285Z,29.85
2024-05-09T15:05:38.812Z,29.67
2024-05-09T15:07:46.928Z,29.47
2024-05-09T15:09:54.259Z,29.40
2024-05-09T15:12:01.663Z,30.10
2024-05-09T15:14:08.939Z,30.43
2024-05-09T15:16:16.417Z,30.11
2024-05-09T15:18:23.880Z,30.38
2024-05-09T15:20:35.411Z,30.04
2024-05-09T15:22:44.297Z,29.85
2024-05-09T15:24:53.768Z,30.14
2024-05-09T15:27:01.066Z,30.41
2024-05-09T15:29:08.375Z,30.41
2024-05-09T15:31:15.731Z,30.52
2024-05-09T15:33:23.032Z,31.09
2024-05-09T15:35:30.303Z,31.65
2024-05-09T15:37:37.882Z,31.96
2024-05-09T15:39:45.487Z,31.71
2024-05-09T15:41:55.727Z,31.53
2024-05-09T15:44:02.986Z,31.93
2024-05-09T15:46:10.307Z,32.40
2024-05-09T15:48:17.806Z,33.19
2024-05-09T15:50:35.154Z,33.13
2024-05-09T15:52:46.529Z,33.22
2024-05-09T15:54:53.859Z,33.05
2024-05-09T15:57:01.215Z,33.02
2024-05-09T15:59:08.472Z,33.35
2024-05-09T16:01:15.782Z,33.93
2024-05-09T16:03:23.094Z,34.17
2024-05-09T16:05:30.590Z,33.52
2024-05-09T16:07:37.964Z,34.06
2024-05-09T16:09:45.232Z,34.14
2024-05-09T16:11:52.658Z,34.32
2024-05-09T16:13:59.899Z,34.80
2024-05-09T16:16:08.391Z,35.04
2024-05-09T16:18:16.527Z,34.84
2024-05-09T16:22:34.469Z,35.74
2024-05-09T16:24:41.781Z,36.57
2024-05-09T16:26:49.082Z,37.14
2024-05-09T16:28:56.431Z,37.29
2024-05-09T16:31:03.775Z,38.14
2024-05-09T16:33:11.644Z,37.25
2024-05-09T16:35:19.090Z,38.02
2024-05-09T16:37:29.541Z,37.94
2024-05-09T16:39:37.240Z,38.39
2024-05-09T16:41:44.718Z,37.95
2024-05-09T16:43:51.958Z,37.88
2024-05-09T16:45:59.356Z,38.96
2024-05-09T16:48:08.350Z,40.00
2024-05-09T16:50:19.269Z,39.76
2024-05-09T16:52:29.671Z,39.77
2024-05-09T16:54:36.918Z,40.14
2024-05-09T16:56:44.246Z,40.42
2024-05-09T16:58:51.794Z,40.26
2024-05-09T17:00:59.263Z,40.24
2024-05-09T17:03:07.544Z,39.96
2024-05-09T17:05:16.781Z,39.80
2024-05-09T17:07:24.329Z,39.28
2024-05-09T17:09:31.601Z,39.33
2024-05-09T17:11:39.066Z,39.83
2024-05-09T17:13:48.194Z,40.18
2024-05-09T17:15:55.772Z,40.22
2024-05-09T17:18:03.576Z,40.18
2024-05-09T17:20:22.898Z,40.97
2024-05-09T17:22:36.701Z,41.59
2024-05-09T17:24:44.001Z,41.90
2024-05-09T17:26:52.820Z,42.91
2024-05-09T17:29:00.327Z,44.23
2024-05-09T17:31:08.200Z,44.07
2024-05-09T17:33:15.697Z,44.90
2024-05-09T17:35:23.167Z,46.27
2024-05-09T17:37:31.076Z,48.11
2024-05-09T17:39:38.436Z,48.14
2024-05-09T17:41:45.764Z,48.41
2024-05-09T17:43:53.059Z,50.22
2024-05-09T17:46:00.674Z,51.12
2024-05-09T17:48:10.722Z,51.74
2024-05-09T17:50:27.252Z,52.04
2024-05-09T17:52:40.996Z,52.99
2024-05-09T17:54:48.228Z,53.20
2024-05-09T17:56:55.510Z,54.38
2024-05-09T17:59:02.743Z,55.30
2024-05-09T18:01:10.042Z,54.95
2024-05-09T18:03:17.370Z,55.80
2024-05-09T18:05:24.979Z,56.37
2024-05-09T18:07:32.358Z,56.99
2024-05-09T18:09:39.636Z,57.04
2024-05-09T18:11:47.063Z,57.29
2024-05-09T18:13:54.985Z,58.30
2024-05-09T18:16:02.410Z,58.55
2024-05-09T18:18:10.342Z,59.17
2024-05-09T18:20:28.574Z,60.00
2024-05-09T18:22:44.734Z,60.25
2024-05-09T18:24:52.468Z,60.75
2024-05-09T18:26:59.878Z,61.47
2024-05-09T18:29:10.194Z,61.62
2024-05-09T18:31:18.373Z,62.41
2024-05-09T18:33:26.116Z,62.12
2024-05-09T18:35:33.889Z,62.16
2024-05-09T18:37:43.380Z,62.11
2024-05-09T18:39:51.026Z,62.27
2024-05-09T18:42:00.619Z,62.89
2024-05-09T18:44:08.137Z,63.00
2024-05-09T18:46:15.604Z,63.20
2024-05-09T18:48:23.029Z,63.70
2024-05-09T18:50:35.651Z,64.32
2024-05-09T18:52:46.031Z,64.76
2024-05-09T18:54:53.824Z,65.16
2024-05-09T18:57:01.205Z,65.91
2024-05-09T18:59:08.601Z,66.77
2024-05-09T19:01:15.845Z,67.31
2024-05-09T19:03:23.375Z,67.94
2024-05-09T19:05:31.614Z,68.47
2024-05-09T19:07:39.078Z,68.73
2024-05-09T19:09:47.385Z,68.97
2024-05-09T19:11:54.675Z,69.32
2024-05-09T19:14:04.278Z,69.85
2024-05-09T19:16:11.683Z,69.84
2024-05-09T19:18:19.659Z,70.62
2024-05-09T19:20:33.100Z,71.13
2024-05-09T19:22:42.305Z,71.82
2024-05-09T19:24:49.609Z,72.74
2024-05-09T19:26:56.882Z,72.67
2024-05-09T19:29:04.553Z,72.93
2024-05-09T19:31:12.010Z,72.95
2024-05-09T19:33:19.321Z,73.58
2024-05-09T19:35:26.630Z,74.51
2024-05-09T19:37:34.293Z,75.01
2024-05-09T19:39:41.644Z,75.13
2024-05-09T19:41:48.860Z,75.41
2024-05-09T19:43:56.122Z,75.91
2024-05-09T19:46:03.621Z,75.76
2024-05-09T19:48:11.608Z,76.57
2024-05-09T19:50:26.796Z,76.89
2024-05-09T19:52:42.998Z,77.68
2024-05-09T19:54:50.261Z,78.28
2024-05-09T19:56:58.416Z,78.36
2024-05-09T19:59:05.696Z,79.04
2024-05-09T20:01:13.039Z,79.38
2024-05-09T20:03:20.435Z,79.98
2024-05-09T20:05:28.750Z,80.60
2024-05-09T20:07:37.735Z,81.09
2024-05-09T20:09:45.084Z,81.89
2024-05-09T20:11:52.472Z,83.42
2024-05-09T20:13:59.792Z,83.47
2024-05-09T20:16:08.827Z,83.88
2024-05-09T20:18:17.800Z,83.84
2024-05-09T20:20:33.717Z,84.10
2024-05-09T20:22:45.669Z,84.42
2024-05-09T20:24:53.010Z,84.91
2024-05-09T20:27:00.534Z,85.35
2024-05-09T20:29:07.875Z,85.66
2024-05-09T20:31:21.841Z,86.02
2024-05-09T20:33:29.521Z,86.13
2024-05-09T20:35:37.341Z,86.75
2024-05-09T20:37:44.645Z,87.21
2024-05-09T20:39:52.223Z,87.08
2024-05-09T20:41:59.482Z,87.18
2024-05-09T20:44:06.984Z,87.21
2024-05-09T20:46:16.583Z,87.70
2024-05-09T20:48:24.510Z,87.45
2024-05-09T20:50:37.768Z,87.70
2024-05-09T20:52:48.279Z,87.90
2024-05-09T20:54:55.769Z,88.19
2024-05-09T20:57:03.693Z,88.68
2024-05-09T20:59:10.967Z,88.80
2024-05-09T21:01:18.320Z,89.34
2024-05-09T21:03:25.847Z,89.54
2024-05-09T21:05:33.744Z,89.54
2024-05-09T21:07:41.344Z,89.88
2024-05-09T21:09:48.634Z,90.02
2024-05-09T21:11:55.928Z,90.15
2024-05-09T21:14:03.351Z,89.15
2024-05-09T21:16:11.239Z,89.13
2024-05-09T21:18:18.789Z,88.36
2024-05-09T21:20:31.251Z,88.52
2024-05-09T21:22:40.166Z,88.85
2024-05-09T21:24:47.449Z,88.55
2024-05-09T21:26:54.723Z,89.13
2024-05-09T21:29:02.048Z,89.22
2024-05-09T21:31:10.444Z,89.37
2024-05-09T21:33:17.961Z,89.28
2024-05-09T21:35:25.377Z,89.53
2024-05-09T21:37:32.624Z,89.73
2024-05-09T21:39:39.890Z,90.11
2024-05-09T21:41:47.186Z,90.27
2024-05-09T21:43:54.380Z,90.62
2024-05-09T21:46:01.708Z,91.09
2024-05-09T21:48:10.482Z,91.29
2024-05-09T21:50:22.939Z,91.20
2024-05-09T21:52:35.720Z,92.39
2024-05-09T21:54:43.037Z,94.42
2024-05-09T21:56:50.666Z,95.29
2024-05-09T21:58:57.918Z,95.65
2024-05-09T22:01:05.923Z,95.10
2024-05-09T22:03:13.456Z,95.18
2024-05-09T22:05:21.639Z,94.53
2024-05-09T22:07:28.904Z,94.20
2024-05-09T22:09:36.222Z,94.87
2024-05-09T22:11:43.523Z,95.62
2024-05-09T22:13:50.821Z,95.91
2024-05-09T22:15:58.060Z,96.22
2024-05-09T22:18:06.111Z,95.26
2024-05-09T22:20:21.853Z,94.44
2024-05-09T22:22:35.841Z,94.81
2024-05-09T22:24:43.095Z,95.84
2024-05-09T22:26:52.047Z,95.78
2024-05-09T22:28:59.312Z,96.24
2024-05-09T22:31:09.224Z,96.47
2024-05-09T22:33:16.868Z,96.56
2024-05-09T22:35:24.363Z,96.89
2024-05-09T22:37:31.636Z,97.65
2024-05-09T22:39:38.903Z,98.30
2024-05-09T22:41:46.649Z,98.35
2024-05-09T22:43:53.922Z,98.36
2024-05-09T22:46:01.243Z,98.32
2024-05-09T22:48:10.307Z,98.39
2024-05-09T22:50:26.289Z,98.52
2024-05-09T22:52:34.533Z,98.51
2024-05-09T22:54:42.206Z,98.03
2024-05-09T22:56:49.428Z,97.46
2024-05-09T22:58:56.716Z,96.71
2024-05-09T23:01:04.041Z,96.67
2024-05-09T23:03:11.557Z,97.06
2024-05-09T23:05:18.988Z,97.50
2024-05-09T23:07:26.475Z,98.13
2024-05-09T23:09:33.779Z,99.23
2024-05-09T23:11:45.633Z,99.43
2024-05-09T23:13:52.899Z,98.96
2024-05-09T23:16:00.183Z,98.68
2024-05-09T23:18:08.759Z,98.47
2024-05-09T23:20:25.843Z,98.60
2024-05-09T23:22:37.389Z,98.34
2024-05-09T23:24:44.760Z,98.88
2024-05-09T23:26:52.062Z,99.61
2024-05-09T23:28:59.789Z,99.73
2024-05-09T23:31:08.079Z,99.56
2024-05-09T23:33:15.590Z,99.78
2024-05-09T23:35:23.022Z,99.67
2024-05-09T23:37:30.660Z,99.68
2024-05-09T23:39:37.881Z,100.00
2024-05-09T23:41:45.203Z,100.00
2024-05-09T23:43:52.558Z,100.00
2024-05-09T23:45:59.818Z,100.00
2024-05-09T23:48:08.976Z,100.00
2024-05-09T23:50:23.314Z,100.00
2024-05-09T23:52:34.935Z,100.00
2024-05-09T23:54:42.213Z,100.00
2024-05-09T23:56:49.483Z,100.00
2024-05-09T23:58:56.794Z,100.00
